sensor_id;sensor_type;location;lat;lon;timestamp;pressure;altitude;pressure_sealevel;temperature;humidity
49393;BME280;35268;42.642;23.308;2022-12-20T00:00:54;95669.13;;;-0.18;64.98
49393;BME280;35268;42.642;23.308;2022-12-20T00:03:19;95672.53;;;-0.17;64.91
49393;BME280;35268;42.642;23.308;2022-12-20T00:05:45;95673.34;;;-0.17;64.94
49393;BME280;35268;42.642;23.308;2022-12-20T00:08:10;95673.53;;;-0.18;64.68
49393;BME280;35268;42.642;23.308;2022-12-20T00:10:40;95680.78;;;-0.21;64.26
49393;BME280;35268;42.642;23.308;2022-12-20T00:13:07;95676.97;;;-0.25;64.44
49393;BME280;35268;42.642;23.308;2022-12-20T00:15:32;95680.59;;;-0.26;64.58
49393;BME280;35268;42.642;23.308;2022-12-20T00:17:59;95677.75;;;-0.31;64.83
49393;BME280;35268;42.642;23.308;2022-12-20T00:20:26;95688.84;;;-0.29;64.89
49393;BME280;35268;42.642;23.308;2022-12-20T00:22:52;95681.81;;;-0.28;64.58
49393;BME280;35268;42.642;23.308;2022-12-20T00:25:18;95685.63;;;-0.31;64.83
49393;BME280;35268;42.642;23.308;2022-12-20T00:27:45;95680.38;;;-0.31;64.70
49393;BME280;35268;42.642;23.308;2022-12-20T00:30:11;95690.25;;;-0.33;64.78
49393;BME280;35268;42.642;23.308;2022-12-20T00:32:36;95685.00;;;-0.33;64.80
49393;BME280;35268;42.642;23.308;2022-12-20T00:35:02;95685.00;;;-0.33;64.78
49393;BME280;35268;42.642;23.308;2022-12-20T00:37:28;95685.63;;;-0.37;64.91
49393;BME280;35268;42.642;23.308;2022-12-20T00:39:53;95685.19;;;-0.41;64.99
49393;BME280;35268;42.642;23.308;2022-12-20T00:42:19;95682.81;;;-0.43;64.58
49393;BME280;35268;42.642;23.308;2022-12-20T00:44:44;95679.16;;;-0.48;65.42
49393;BME280;35268;42.642;23.308;2022-12-20T00:47:10;95680.75;;;-0.47;65.17
49393;BME280;35268;42.642;23.308;2022-12-20T00:49:35;95669.28;;;-0.46;65.28
49393;BME280;35268;42.642;23.308;2022-12-20T00:52:00;95671.91;;;-0.53;65.40
49393;BME280;35268;42.642;23.308;2022-12-20T00:54:26;95667.47;;;-0.59;65.21
49393;BME280;35268;42.642;23.308;2022-12-20T00:56:51;95675.09;;;-0.57;65.18
49393;BME280;35268;42.642;23.308;2022-12-20T00:59:17;95685.19;;;-0.61;64.72
49393;BME280;35268;42.642;23.308;2022-12-20T01:01:42;95683.97;;;-0.65;65.09
49393;BME280;35268;42.642;23.308;2022-12-20T01:04:08;95686.16;;;-0.69;65.07
49393;BME280;35268;42.642;23.308;2022-12-20T01:06:33;95684.97;;;-0.66;65.10
49393;BME280;35268;42.642;23.308;2022-12-20T01:08:59;95679.50;;;-0.71;65.20
49393;BME280;35268;42.642;23.308;2022-12-20T01:11:28;95692.19;;;-0.75;65.25
49393;BME280;35268;42.642;23.308;2022-12-20T01:13:56;95673.03;;;-0.75;65.06
49393;BME280;35268;42.642;23.308;2022-12-20T01:16:28;95671.25;;;-0.75;65.23
49393;BME280;35268;42.642;23.308;2022-12-20T01:18:54;95674.84;;;-0.76;65.10
49393;BME280;35268;42.642;23.308;2022-12-20T01:21:20;95666.56;;;-0.79;65.10
49393;BME280;35268;42.642;23.308;2022-12-20T01:23:46;95664.97;;;-0.81;65.14
49393;BME280;35268;42.642;23.308;2022-12-20T01:26:15;95665.59;;;-0.78;65.01
49393;BME280;35268;42.642;23.308;2022-12-20T01:28:42;95659.56;;;-0.79;65.08
49393;BME280;35268;42.642;23.308;2022-12-20T01:31:11;95663.41;;;-0.75;65.17
49393;BME280;35268;42.642;23.308;2022-12-20T01:33:37;95652.91;;;-0.75;65.08
49393;BME280;35268;42.642;23.308;2022-12-20T01:36:07;95643.44;;;-0.76;64.90
49393;BME280;35268;42.642;23.308;2022-12-20T01:38:34;95646.47;;;-0.79;64.60
49393;BME280;35268;42.642;23.308;2022-12-20T01:41:00;95643.00;;;-0.79;64.77
49393;BME280;35268;42.642;23.308;2022-12-20T01:43:57;95639.41;;;-0.85;64.82
49393;BME280;35268;42.642;23.308;2022-12-20T01:46:25;95639.97;;;-0.90;64.83
49393;BME280;35268;42.642;23.308;2022-12-20T01:49:16;95634.34;;;-0.93;65.25
49393;BME280;35268;42.642;23.308;2022-12-20T01:51:42;95638.75;;;-1.01;65.33
49393;BME280;35268;42.642;23.308;2022-12-20T01:54:39;95634.72;;;-0.96;65.43
49393;BME280;35268;42.642;23.308;2022-12-20T01:57:08;95624.66;;;-0.99;65.31
49393;BME280;35268;42.642;23.308;2022-12-20T01:59:36;95620.00;;;-1.04;65.15
49393;BME280;35268;42.642;23.308;2022-12-20T02:02:06;95619.19;;;-1.05;65.02
49393;BME280;35268;42.642;23.308;2022-12-20T02:04:33;95612.75;;;-1.09;65.03
49393;BME280;35268;42.642;23.308;2022-12-20T02:06:59;95623.03;;;-1.07;65.19
49393;BME280;35268;42.642;23.308;2022-12-20T02:09:27;95628.63;;;-1.10;64.67
49393;BME280;35268;42.642;23.308;2022-12-20T02:12:03;95618.16;;;-1.10;63.83
49393;BME280;35268;42.642;23.308;2022-12-20T02:26:40;95624.78;;;-1.21;62.60
49393;BME280;35268;42.642;23.308;2022-12-20T02:32:18;95615.94;;;-1.20;62.91
49393;BME280;35268;42.642;23.308;2022-12-20T02:34:45;95621.38;;;-1.22;63.33
49393;BME280;35268;42.642;23.308;2022-12-20T02:37:11;95622.94;;;-1.27;63.16
49393;BME280;35268;42.642;23.308;2022-12-20T02:39:38;95633.03;;;-1.24;63.19
49393;BME280;35268;42.642;23.308;2022-12-20T02:42:09;95624.16;;;-1.23;63.50
49393;BME280;35268;42.642;23.308;2022-12-20T02:44:38;95609.28;;;-1.23;62.92
49393;BME280;35268;42.642;23.308;2022-12-20T02:47:28;95614.13;;;-1.26;62.91
49393;BME280;35268;42.642;23.308;2022-12-20T02:49:56;95616.31;;;-1.23;62.77
49393;BME280;35268;42.642;23.308;2022-12-20T02:52:23;95610.66;;;-1.27;62.94
49393;BME280;35268;42.642;23.308;2022-12-20T02:54:52;95603.03;;;-1.28;62.83
49393;BME280;35268;42.642;23.308;2022-12-20T02:57:30;95609.88;;;-1.27;62.75
49393;BME280;35268;42.642;23.308;2022-12-20T03:00:03;95610.47;;;-1.32;62.58
49393;BME280;35268;42.642;23.308;2022-12-20T03:02:30;95613.25;;;-1.33;62.10
49393;BME280;35268;42.642;23.308;2022-12-20T03:05:21;95606.41;;;-1.34;61.53
49393;BME280;35268;42.642;23.308;2022-12-20T03:07:48;95608.41;;;-1.36;61.67
49393;BME280;35268;42.642;23.308;2022-12-20T03:10:15;95602.56;;;-1.38;61.30
49393;BME280;35268;42.642;23.308;2022-12-20T03:12:41;95603.16;;;-1.43;61.24
49393;BME280;35268;42.642;23.308;2022-12-20T03:15:06;95603.16;;;-1.43;61.53
49393;BME280;35268;42.642;23.308;2022-12-20T03:17:32;95593.13;;;-1.39;61.55
49393;BME280;35268;42.642;23.308;2022-12-20T03:19:57;95596.34;;;-1.37;61.32
49393;BME280;35268;42.642;23.308;2022-12-20T03:22:23;95592.50;;;-1.42;61.15
49393;BME280;35268;42.642;23.308;2022-12-20T03:24:48;95591.72;;;-1.42;61.10
49393;BME280;35268;42.642;23.308;2022-12-20T03:27:14;95590.88;;;-1.43;61.19
49393;BME280;35268;42.642;23.308;2022-12-20T03:29:40;95593.72;;;-1.44;61.21
49393;BME280;35268;42.642;23.308;2022-12-20T03:32:06;95596.31;;;-1.44;61.15
49393;BME280;35268;42.642;23.308;2022-12-20T03:34:31;95592.28;;;-1.47;61.25
49393;BME280;35268;42.642;23.308;2022-12-20T03:36:57;95600.13;;;-1.47;61.28
49393;BME280;35268;42.642;23.308;2022-12-20T03:39:23;95601.13;;;-1.48;61.08
49393;BME280;35268;42.642;23.308;2022-12-20T03:41:48;95599.50;;;-1.49;61.37
49393;BME280;35268;42.642;23.308;2022-12-20T03:44:14;95598.69;;;-1.56;61.42
49393;BME280;35268;42.642;23.308;2022-12-20T03:46:39;95594.88;;;-1.53;61.24
49393;BME280;35268;42.642;23.308;2022-12-20T03:49:05;95586.84;;;-1.52;61.15
49393;BME280;35268;42.642;23.308;2022-12-20T03:51:30;95589.03;;;-1.55;61.64
49393;BME280;35268;42.642;23.308;2022-12-20T03:53:56;95597.66;;;-1.55;61.41
49393;BME280;35268;42.642;23.308;2022-12-20T03:56:22;95587.63;;;-1.58;61.47
49393;BME280;35268;42.642;23.308;2022-12-20T03:58:47;95587.00;;;-1.60;61.35
49393;BME280;35268;42.642;23.308;2022-12-20T04:01:22;95585.19;;;-1.59;61.47
49393;BME280;35268;42.642;23.308;2022-12-20T04:03:48;95592.22;;;-1.60;61.38
49393;BME280;35268;42.642;23.308;2022-12-20T04:06:14;95594.22;;;-1.62;61.61
49393;BME280;35268;42.642;23.308;2022-12-20T04:08:39;95586.56;;;-1.64;62.22
49393;BME280;35268;42.642;23.308;2022-12-20T04:11:05;95593.81;;;-1.66;62.40
49393;BME280;35268;42.642;23.308;2022-12-20T04:16:09;95593.16;;;-1.74;62.81
49393;BME280;35268;42.642;23.308;2022-12-20T04:18:34;95588.91;;;-1.82;62.90
49393;BME280;35268;42.642;23.308;2022-12-20T04:21:00;95587.25;;;-1.90;63.36
49393;BME280;35268;42.642;23.308;2022-12-20T04:23:26;95585.41;;;-1.96;63.66
49393;BME280;35268;42.642;23.308;2022-12-20T04:25:51;95577.97;;;-1.99;63.65
49393;BME280;35268;42.642;23.308;2022-12-20T04:28:17;95580.72;;;-2.07;63.41
49393;BME280;35268;42.642;23.308;2022-12-20T04:30:42;95569.84;;;-2.11;63.44
49393;BME280;35268;42.642;23.308;2022-12-20T04:33:08;95574.59;;;-2.21;63.28
49393;BME280;35268;42.642;23.308;2022-12-20T04:35:33;95578.16;;;-2.29;63.85
49393;BME280;35268;42.642;23.308;2022-12-20T04:37:59;95584.56;;;-2.31;63.96
49393;BME280;35268;42.642;23.308;2022-12-20T04:40:25;95578.34;;;-2.30;64.54
49393;BME280;35268;42.642;23.308;2022-12-20T04:42:50;95571.09;;;-2.35;64.64
49393;BME280;35268;42.642;23.308;2022-12-20T04:45:16;95582.47;;;-2.43;64.89
49393;BME280;35268;42.642;23.308;2022-12-20T04:47:41;95569.41;;;-2.43;65.13
49393;BME280;35268;42.642;23.308;2022-12-20T04:50:07;95576.44;;;-2.43;65.28
49393;BME280;35268;42.642;23.308;2022-12-20T04:52:32;95570.63;;;-2.45;65.68
49393;BME280;35268;42.642;23.308;2022-12-20T04:55:16;95580.84;;;-2.50;65.89
49393;BME280;35268;42.642;23.308;2022-12-20T04:57:42;95575.59;;;-2.50;66.38
49393;BME280;35268;42.642;23.308;2022-12-20T05:00:08;95570.38;;;-2.50;66.43
49393;BME280;35268;42.642;23.308;2022-12-20T05:02:33;95576.84;;;-2.46;66.57
49393;BME280;35268;42.642;23.308;2022-12-20T05:04:59;95577.03;;;-2.48;66.73
49393;BME280;35268;42.642;23.308;2022-12-20T05:07:24;95576.22;;;-2.48;66.66
49393;BME280;35268;42.642;23.308;2022-12-20T05:09:50;95567.56;;;-2.49;66.56
49393;BME280;35268;42.642;23.308;2022-12-20T05:12:15;95571.81;;;-2.48;66.48
49393;BME280;35268;42.642;23.308;2022-12-20T05:14:41;95567.38;;;-2.47;66.41
49393;BME280;35268;42.642;23.308;2022-12-20T05:17:06;95565.16;;;-2.50;66.38
49393;BME280;35268;42.642;23.308;2022-12-20T05:19:33;95562.75;;;-2.52;66.13
49393;BME280;35268;42.642;23.308;2022-12-20T05:21:59;95572.75;;;-2.55;66.35
49393;BME280;35268;42.642;23.308;2022-12-20T05:24:43;95576.97;;;-2.54;66.17
49393;BME280;35268;42.642;23.308;2022-12-20T05:27:27;95579.78;;;-2.56;66.38
49393;BME280;35268;42.642;23.308;2022-12-20T05:29:53;95573.75;;;-2.56;66.62
49393;BME280;35268;42.642;23.308;2022-12-20T05:32:18;95577.53;;;-2.59;66.72
49393;BME280;35268;42.642;23.308;2022-12-20T05:34:44;95581.94;;;-2.59;66.57
49393;BME280;35268;42.642;23.308;2022-12-20T05:37:09;95575.13;;;-2.60;66.65
49393;BME280;35268;42.642;23.308;2022-12-20T05:39:35;95578.53;;;-2.60;66.78
49393;BME280;35268;42.642;23.308;2022-12-20T05:42:00;95578.28;;;-2.65;66.73
49393;BME280;35268;42.642;23.308;2022-12-20T05:44:25;95584.31;;;-2.65;65.70
49393;BME280;35268;42.642;23.308;2022-12-20T05:46:51;95581.91;;;-2.66;65.77
49393;BME280;35268;42.642;23.308;2022-12-20T05:49:16;95583.06;;;-2.69;65.96
49393;BME280;35268;42.642;23.308;2022-12-20T05:51:42;95583.06;;;-2.69;65.85
49393;BME280;35268;42.642;23.308;2022-12-20T05:54:07;95586.69;;;-2.70;66.17
49393;BME280;35268;42.642;23.308;2022-12-20T05:56:33;95591.66;;;-2.75;65.64
49393;BME280;35268;42.642;23.308;2022-12-20T05:58:58;95590.03;;;-2.76;66.34
49393;BME280;35268;42.642;23.308;2022-12-20T06:01:24;95585.63;;;-2.75;65.89
49393;BME280;35268;42.642;23.308;2022-12-20T06:03:49;95591.41;;;-2.80;64.67
49393;BME280;35268;42.642;23.308;2022-12-20T06:06:15;95590.16;;;-2.84;64.80
49393;BME280;35268;42.642;23.308;2022-12-20T06:08:41;95592.97;;;-2.86;64.95
49393;BME280;35268;42.642;23.308;2022-12-20T06:11:06;95585.75;;;-2.84;65.52
49393;BME280;35268;42.642;23.308;2022-12-20T06:13:32;95590.00;;;-2.83;65.62
49393;BME280;35268;42.642;23.308;2022-12-20T06:15:57;95590.41;;;-2.79;65.79
49393;BME280;35268;42.642;23.308;2022-12-20T06:18:24;95582.22;;;-2.76;66.28
49393;BME280;35268;42.642;23.308;2022-12-20T06:20:51;95588.66;;;-2.72;66.37
49393;BME280;35268;42.642;23.308;2022-12-20T06:23:17;95591.09;;;-2.70;66.59
49393;BME280;35268;42.642;23.308;2022-12-20T06:25:42;95592.53;;;-2.68;66.24
49393;BME280;35268;42.642;23.308;2022-12-20T06:28:09;95592.13;;;-2.65;66.38
49393;BME280;35268;42.642;23.308;2022-12-20T06:30:35;95585.56;;;-2.60;66.63
49393;BME280;35268;42.642;23.308;2022-12-20T06:33:01;95589.22;;;-2.55;66.77
49393;BME280;35268;42.642;23.308;2022-12-20T06:35:26;95587.03;;;-2.51;66.13
49393;BME280;35268;42.642;23.308;2022-12-20T06:37:51;95582.25;;;-2.48;66.29
49393;BME280;35268;42.642;23.308;2022-12-20T06:40:17;95586.09;;;-2.44;66.08
49393;BME280;35268;42.642;23.308;2022-12-20T06:42:42;95583.53;;;-2.37;66.38
49393;BME280;35268;42.642;23.308;2022-12-20T06:45:09;95588.16;;;-2.32;66.39
49393;BME280;35268;42.642;23.308;2022-12-20T06:47:34;95586.00;;;-2.29;66.44
49393;BME280;35268;42.642;23.308;2022-12-20T06:50:00;95582.63;;;-2.23;65.85
49393;BME280;35268;42.642;23.308;2022-12-20T06:52:25;95575.03;;;-2.17;65.64
49393;BME280;35268;42.642;23.308;2022-12-20T06:54:51;95569.41;;;-2.14;65.20
49393;BME280;35268;42.642;23.308;2022-12-20T06:57:16;95570.22;;;-2.14;65.22
49393;BME280;35268;42.642;23.308;2022-12-20T06:59:42;95574.88;;;-2.09;65.24
49393;BME280;35268;42.642;23.308;2022-12-20T07:02:10;95574.66;;;-2.08;65.49
49393;BME280;35268;42.642;23.308;2022-12-20T07:04:35;95559.59;;;-2.06;65.38
49393;BME280;35268;42.642;23.308;2022-12-20T07:07:02;95558.03;;;-2.00;65.22
49393;BME280;35268;42.642;23.308;2022-12-20T07:09:27;95556.19;;;-2.06;65.16
49393;BME280;35268;42.642;23.308;2022-12-20T07:11:54;95554.22;;;-1.97;65.00
49393;BME280;35268;42.642;23.308;2022-12-20T07:14:19;95553.88;;;-1.88;64.94
49393;BME280;35268;42.642;23.308;2022-12-20T07:16:45;95553.94;;;-1.81;63.97
49393;BME280;35268;42.642;23.308;2022-12-20T07:19:11;95547.09;;;-1.75;63.39
49393;BME280;35268;42.642;23.308;2022-12-20T07:21:37;95555.78;;;-1.68;62.39
49393;BME280;35268;42.642;23.308;2022-12-20T07:24:03;95553.00;;;-1.60;61.64
49393;BME280;35268;42.642;23.308;2022-12-20T07:26:28;95552.41;;;-1.55;61.50
49393;BME280;35268;42.642;23.308;2022-12-20T07:28:54;95552.66;;;-1.44;60.84
49393;BME280;35268;42.642;23.308;2022-12-20T07:31:19;95552.47;;;-1.42;60.62
49393;BME280;35268;42.642;23.308;2022-12-20T07:33:45;95544.84;;;-1.37;60.31
49393;BME280;35268;42.642;23.308;2022-12-20T07:36:12;95553.34;;;-1.28;59.79
49393;BME280;35268;42.642;23.308;2022-12-20T07:38:38;95548.91;;;-1.21;59.22
49393;BME280;35268;42.642;23.308;2022-12-20T07:41:08;95544.28;;;-1.12;58.78
49393;BME280;35268;42.642;23.308;2022-12-20T07:43:34;95556.19;;;-1.03;58.83
49393;BME280;35268;42.642;23.308;2022-12-20T07:45:59;95550.56;;;-0.93;58.29
49393;BME280;35268;42.642;23.308;2022-12-20T07:48:25;95558.03;;;-0.90;57.83
49393;BME280;35268;42.642;23.308;2022-12-20T07:51:07;95553.38;;;-0.82;58.60
49393;BME280;35268;42.642;23.308;2022-12-20T07:53:37;95543.31;;;-0.71;58.53
49393;BME280;35268;42.642;23.308;2022-12-20T07:56:05;95545.16;;;-0.65;58.35
49393;BME280;35268;42.642;23.308;2022-12-20T07:58:33;95553.81;;;-0.58;58.03
49393;BME280;35268;42.642;23.308;2022-12-20T08:01:00;95541.31;;;-0.56;58.15
49393;BME280;35268;42.642;23.308;2022-12-20T08:03:34;95552.41;;;-0.47;57.33
49393;BME280;35268;42.642;23.308;2022-12-20T08:06:02;95548.16;;;-0.42;57.85
49393;BME280;35268;42.642;23.308;2022-12-20T08:08:35;95540.72;;;-0.38;57.68
49393;BME280;35268;42.642;23.308;2022-12-20T08:11:03;95537.47;;;-0.33;57.52
49393;BME280;35268;42.642;23.308;2022-12-20T08:13:31;95530.44;;;-0.26;57.67
49393;BME280;35268;42.642;23.308;2022-12-20T08:15:58;95528.59;;;-0.19;56.93
49393;BME280;35268;42.642;23.308;2022-12-20T08:18:24;95539.06;;;-0.12;56.68
49393;BME280;35268;42.642;23.308;2022-12-20T08:20:49;95531.19;;;-0.06;56.51
49393;BME280;35268;42.642;23.308;2022-12-20T08:23:15;95537.63;;;-0.02;56.18
49393;BME280;35268;42.642;23.308;2022-12-20T08:25:40;95524.50;;;0.05;55.49
49393;BME280;35268;42.642;23.308;2022-12-20T08:28:06;95532.34;;;0.12;55.14
49393;BME280;35268;42.642;23.308;2022-12-20T08:30:31;95525.47;;;0.17;54.86
49393;BME280;35268;42.642;23.308;2022-12-20T08:32:57;95527.09;;;0.18;54.95
49393;BME280;35268;42.642;23.308;2022-12-20T08:35:22;95521.63;;;0.27;54.17
49393;BME280;35268;42.642;23.308;2022-12-20T08:37:51;95523.63;;;0.31;54.43
49393;BME280;35268;42.642;23.308;2022-12-20T08:40:17;95529.84;;;0.37;54.67
49393;BME280;35268;42.642;23.308;2022-12-20T08:42:43;95525.38;;;0.44;54.10
49393;BME280;35268;42.642;23.308;2022-12-20T08:45:09;95513.66;;;0.53;53.94
49393;BME280;35268;42.642;23.308;2022-12-20T08:47:35;95516.44;;;0.58;53.76
49393;BME280;35268;42.642;23.308;2022-12-20T08:50:00;95517.03;;;0.60;53.75
49393;BME280;35268;42.642;23.308;2022-12-20T08:52:28;95515.97;;;0.68;53.45
49393;BME280;35268;42.642;23.308;2022-12-20T08:54:53;95510.31;;;0.71;53.67
49393;BME280;35268;42.642;23.308;2022-12-20T08:57:19;95518.78;;;0.73;52.82
49393;BME280;35268;42.642;23.308;2022-12-20T08:59:45;95511.13;;;0.72;52.83
49393;BME280;35268;42.642;23.308;2022-12-20T09:02:10;95511.13;;;0.72;52.88
49393;BME280;35268;42.642;23.308;2022-12-20T09:04:36;95504.84;;;0.73;53.07
49393;BME280;35268;42.642;23.308;2022-12-20T09:07:02;95501.47;;;0.66;53.49
49393;BME280;35268;42.642;23.308;2022-12-20T09:09:27;95500.44;;;0.67;53.27
49393;BME280;35268;42.642;23.308;2022-12-20T09:11:58;95495.78;;;0.69;52.67
49393;BME280;35268;42.642;23.308;2022-12-20T09:14:27;95485.69;;;0.72;53.09
49393;BME280;35268;42.642;23.308;2022-12-20T09:16:55;95487.25;;;0.80;53.00
49393;BME280;35268;42.642;23.308;2022-12-20T09:19:33;95486.56;;;0.91;53.26
49393;BME280;35268;42.642;23.308;2022-12-20T09:22:02;95478.53;;;0.86;51.74
49393;BME280;35268;42.642;23.308;2022-12-20T09:24:30;95481.50;;;0.96;51.66
49393;BME280;35268;42.642;23.308;2022-12-20T09:26:56;95479.41;;;1.05;51.97
49393;BME280;35268;42.642;23.308;2022-12-20T09:29:22;95477.91;;;1.16;51.35
49393;BME280;35268;42.642;23.308;2022-12-20T09:31:48;95466.75;;;1.20;50.76
49393;BME280;35268;42.642;23.308;2022-12-20T09:34:14;95461.41;;;1.09;51.46
49393;BME280;35268;42.642;23.308;2022-12-20T09:36:39;95460.88;;;1.00;51.55
49393;BME280;35268;42.642;23.308;2022-12-20T09:39:05;95470.19;;;0.96;51.32
49393;BME280;35268;42.642;23.308;2022-12-20T09:41:33;95469.09;;;1.04;50.68
49393;BME280;35268;42.642;23.308;2022-12-20T09:44:06;95462.47;;;1.01;50.56
49393;BME280;35268;42.642;23.308;2022-12-20T09:46:37;95448.78;;;0.92;50.97
49393;BME280;35268;42.642;23.308;2022-12-20T09:49:03;95459.09;;;0.94;51.20
49393;BME280;35268;42.642;23.308;2022-12-20T09:52:02;95450.97;;;0.95;51.39
49393;BME280;35268;42.642;23.308;2022-12-20T09:57:31;95435.81;;;0.97;51.53
49393;BME280;35268;42.642;23.308;2022-12-20T10:00:15;95445.63;;;1.09;51.16
49393;BME280;35268;42.642;23.308;2022-12-20T10:02:42;95434.94;;;1.10;50.27
49393;BME280;35268;42.642;23.308;2022-12-20T10:05:24;95422.81;;;1.09;50.30
49393;BME280;35268;42.642;23.308;2022-12-20T10:13:28;95410.09;;;1.31;50.64
49393;BME280;35268;42.642;23.308;2022-12-20T10:24:07;95376.72;;;1.87;49.39
49393;BME280;35268;42.642;23.308;2022-12-20T10:26:34;95367.75;;;1.95;48.87
49393;BME280;35268;42.642;23.308;2022-12-20T10:29:00;95370.53;;;2.00;48.82
49393;BME280;35268;42.642;23.308;2022-12-20T10:31:25;95360.69;;;2.07;48.62
49393;BME280;35268;42.642;23.308;2022-12-20T10:33:51;95346.06;;;2.11;48.92
49393;BME280;35268;42.642;23.308;2022-12-20T10:36:27;95352.31;;;2.29;48.77
49393;BME280;35268;42.642;23.308;2022-12-20T10:38:55;95340.00;;;2.41;48.19
49393;BME280;35268;42.642;23.308;2022-12-20T10:41:28;95337.72;;;2.56;46.95
49393;BME280;35268;42.642;23.308;2022-12-20T10:43:59;95335.69;;;2.58;46.90
49393;BME280;35268;42.642;23.308;2022-12-20T10:46:37;95324.16;;;2.71;46.96
49393;BME280;35268;42.642;23.308;2022-12-20T10:49:28;95326.22;;;2.81;47.15
49393;BME280;35268;42.642;23.308;2022-12-20T10:54:35;95325.78;;;3.08;46.01
49393;BME280;35268;42.642;23.308;2022-12-20T10:57:26;95312.91;;;3.11;45.85
49393;BME280;35268;42.642;23.308;2022-12-20T11:00:00;95307.00;;;3.16;46.14
49393;BME280;35268;42.642;23.308;2022-12-20T11:02:32;95309.16;;;3.19;45.40
49393;BME280;35268;42.642;23.308;2022-12-20T11:05:23;95311.06;;;3.24;45.58
49393;BME280;35268;42.642;23.308;2022-12-20T11:07:58;95305.00;;;3.23;45.04
49393;BME280;35268;42.642;23.308;2022-12-20T11:10:27;95305.00;;;3.23;43.95
49393;BME280;35268;42.642;23.308;2022-12-20T11:12:55;95304.09;;;3.29;44.13
49393;BME280;35268;42.642;23.308;2022-12-20T11:15:24;95289.19;;;3.35;44.13
49393;BME280;35268;42.642;23.308;2022-12-20T11:18:04;95292.38;;;3.49;43.90
49393;BME280;35268;42.642;23.308;2022-12-20T11:34:02;95275.16;;;3.87;41.84
49393;BME280;35268;42.642;23.308;2022-12-20T11:42:51;95254.34;;;4.02;41.06
49393;BME280;35268;42.642;23.308;2022-12-20T11:56:07;95254.81;;;3.99;40.63
49393;BME280;35268;42.642;23.308;2022-12-20T12:01:09;95243.94;;;3.95;40.46
49393;BME280;35268;42.642;23.308;2022-12-20T12:03:40;95240.75;;;3.93;40.36
49393;BME280;35268;42.642;23.308;2022-12-20T12:06:18;95239.44;;;3.79;41.38
49393;BME280;35268;42.642;23.308;2022-12-20T12:09:34;95234.00;;;3.86;40.36
49393;BME280;35268;42.642;23.308;2022-12-20T12:11:57;95241.19;;;3.90;40.09
49393;BME280;35268;42.642;23.308;2022-12-20T12:14:55;95228.25;;;3.89;41.01
49393;BME280;35268;42.642;23.308;2022-12-20T12:17:45;95236.31;;;3.82;40.60
49393;BME280;35268;42.642;23.308;2022-12-20T12:22:48;95231.38;;;3.57;41.20
49393;BME280;35268;42.642;23.308;2022-12-20T12:25:17;95231.53;;;3.50;41.33
49393;BME280;35268;42.642;23.308;2022-12-20T12:27:43;95233.91;;;3.52;42.01
49393;BME280;35268;42.642;23.308;2022-12-20T12:30:16;95238.03;;;3.48;41.24
49393;BME280;35268;42.642;23.308;2022-12-20T12:47:01;95221.09;;;3.44;41.88
49393;BME280;35268;42.642;23.308;2022-12-20T12:49:30;95216.94;;;3.48;42.08
49393;BME280;35268;42.642;23.308;2022-12-20T12:51:58;95215.19;;;3.65;43.94
49393;BME280;35268;42.642;23.308;2022-12-20T12:54:29;95214.41;;;3.81;42.04
49393;BME280;35268;42.642;23.308;2022-12-20T12:57:01;95218.75;;;3.88;40.82
49393;BME280;35268;42.642;23.308;2022-12-20T13:10:01;95206.69;;;3.92;42.16
49393;BME280;35268;42.642;23.308;2022-12-20T13:20:23;95196.03;;;3.87;42.04
49393;BME280;35268;42.642;23.308;2022-12-20T13:25:39;95194.34;;;3.80;42.24
49393;BME280;35268;42.642;23.308;2022-12-20T13:33:43;95197.00;;;3.52;43.50
49393;BME280;35268;42.642;23.308;2022-12-20T13:43:45;95193.94;;;3.43;44.95
49393;BME280;35268;42.642;23.308;2022-12-20T13:46:21;95189.47;;;3.44;45.32
49393;BME280;35268;42.642;23.308;2022-12-20T13:48:51;95185.81;;;3.45;45.24
49393;BME280;35268;42.642;23.308;2022-12-20T13:51:26;95183.72;;;3.47;45.60
49393;BME280;35268;42.642;23.308;2022-12-20T13:54:01;95187.38;;;3.46;45.62
49393;BME280;35268;42.642;23.308;2022-12-20T13:56:35;95182.59;;;3.42;46.26
49393;BME280;35268;42.642;23.308;2022-12-20T13:59:06;95188.31;;;3.39;46.75
49393;BME280;35268;42.642;23.308;2022-12-20T14:01:32;95186.06;;;3.31;47.05
49393;BME280;35268;42.642;23.308;2022-12-20T14:04:03;95184.72;;;3.29;47.17
49393;BME280;35268;42.642;23.308;2022-12-20T14:06:32;95179.66;;;3.27;47.60
49393;BME280;35268;42.642;23.308;2022-12-20T14:08:57;95174.53;;;3.20;48.01
49393;BME280;35268;42.642;23.308;2022-12-20T14:11:25;95175.25;;;3.16;48.34
49393;BME280;35268;42.642;23.308;2022-12-20T14:13:59;95160.84;;;3.07;47.74
49393;BME280;35268;42.642;23.308;2022-12-20T14:16:27;95163.94;;;3.04;48.10
49393;BME280;35268;42.642;23.308;2022-12-20T14:21:21;95154.78;;;2.94;48.14
49393;BME280;35268;42.642;23.308;2022-12-20T14:23:51;95154.47;;;2.91;47.90
49393;BME280;35268;42.642;23.308;2022-12-20T14:26:21;95165.69;;;2.86;47.92
49393;BME280;35268;42.642;23.308;2022-12-20T14:28:49;95157.13;;;2.79;48.01
49393;BME280;35268;42.642;23.308;2022-12-20T14:36:26;95151.75;;;2.62;49.12
49393;BME280;35268;42.642;23.308;2022-12-20T14:38:52;95155.66;;;2.59;50.24
49393;BME280;35268;42.642;23.308;2022-12-20T14:41:34;95152.34;;;2.52;50.60
49393;BME280;35268;42.642;23.308;2022-12-20T14:46:32;95149.38;;;2.37;50.50
49393;BME280;35268;42.642;23.308;2022-12-20T14:49:33;95149.50;;;2.30;51.40
49393;BME280;35268;42.642;23.308;2022-12-20T14:52:13;95151.78;;;2.15;51.28
49393;BME280;35268;42.642;23.308;2022-12-20T14:54:49;95150.06;;;2.09;50.97
49393;BME280;35268;42.642;23.308;2022-12-20T15:00:01;95138.75;;;1.96;51.67
49393;BME280;35268;42.642;23.308;2022-12-20T15:03:18;95138.28;;;1.88;52.14
49393;BME280;35268;42.642;23.308;2022-12-20T15:08:23;95141.09;;;1.74;52.19
49393;BME280;35268;42.642;23.308;2022-12-20T15:13:35;95121.09;;;1.62;52.15
49393;BME280;35268;42.642;23.308;2022-12-20T15:16:13;95136.41;;;1.53;52.11
49393;BME280;35268;42.642;23.308;2022-12-20T15:18:39;95127.78;;;1.46;52.36
49393;BME280;35268;42.642;23.308;2022-12-20T15:21:14;95132.09;;;1.40;52.72